Lena, Louisiana
Current Conditions -  °F | °C
As of 3:53 PM on Friday 24 Oct 2014 (Local Time) from KAEX Reporting Station
Clear Clear  
Wind Chill: 77°   Ceiling: Unl
Heat Index: 78°   Visibility: 10mi
Dew Point: 46°   Wind: 7mph
Humidity: 33%   Direction: 350°N
Pressure: 30.09"   Gusts: NA
Location:  31.46°N, 92.77°W
Report Text: KAEX 242053Z 35006KT 10SM CLR 25/08 A3009 RMK AO2 SLP191 T02500078 56014
Loading
Personal Weather Stations






























Interactive Weather Map New forecast layout! Learn more

10-Day Weather Forecast

Advertisements
Track Severe Weather on mobile